createdAt,value
2018-06-25T00:02:05.924Z,23.63
2018-06-25T00:04:33.981Z,17.12
2018-06-25T00:07:02.005Z,17.63
2018-06-25T00:09:30.062Z,16.23
2018-06-25T00:11:58.525Z,15.13
2018-06-25T00:14:26.576Z,16.57
2018-06-25T00:16:54.669Z,16.80
2018-06-25T00:19:23.792Z,13.50
2018-06-25T00:21:51.813Z,15.50
2018-06-25T00:24:19.829Z,11.47
2018-06-25T00:26:47.868Z,19.47
2018-06-25T00:29:15.909Z,10.50
2018-06-25T00:31:43.926Z,12.03
2018-06-25T00:34:11.961Z,14.70
2018-06-25T00:36:40.010Z,14.10
2018-06-25T00:39:08.885Z,11.70
2018-06-25T00:41:37.526Z,18.13
2018-06-25T00:44:05.629Z,12.07
2018-06-25T00:46:33.658Z,12.15
2018-06-25T00:49:02.104Z,13.20
2018-06-25T00:51:30.158Z,12.33
2018-06-25T00:53:58.177Z,14.47
2018-06-25T00:56:26.276Z,14.35
2018-06-25T00:58:59.997Z,14.07
2018-06-25T01:01:28.038Z,12.20
2018-06-25T01:03:56.079Z,18.47
2018-06-25T01:06:24.195Z,10.50
2018-06-25T01:08:52.644Z,12.58
2018-06-25T01:11:20.708Z,12.87
2018-06-25T01:13:48.732Z,14.27
2018-06-25T01:16:16.800Z,14.03
2018-06-25T01:18:45.253Z,14.63
2018-06-25T01:21:13.284Z,13.13
2018-06-25T01:23:41.593Z,14.10
2018-06-25T01:26:09.650Z,11.80
2018-06-25T01:28:37.675Z,12.57
2018-06-25T01:31:06.120Z,15.20
2018-06-25T01:33:34.154Z,11.28
2018-06-25T01:36:02.225Z,20.00
2018-06-25T01:38:30.261Z,15.83
2018-06-25T01:40:58.292Z,15.00
2018-06-25T01:43:26.305Z,15.17
2018-06-25T01:45:54.369Z,13.70
2018-06-25T01:48:22.421Z,12.97
2018-06-25T01:50:50.437Z,15.60
2018-06-25T01:53:18.471Z,11.97
2018-06-25T01:55:46.547Z,12.67
2018-06-25T01:58:14.619Z,15.30
2018-06-25T02:00:42.723Z,17.50
2018-06-25T02:03:10.724Z,16.20
2018-06-25T02:05:38.882Z,18.33
2018-06-25T02:08:06.934Z,11.37
2018-06-25T02:10:35.045Z,12.33
2018-06-25T02:13:03.111Z,13.53
2018-06-25T02:15:31.496Z,13.10
2018-06-25T02:17:59.585Z,13.53
2018-06-25T02:20:27.711Z,16.40
2018-06-25T02:22:55.754Z,16.67
2018-06-25T02:25:23.755Z,11.57
2018-06-25T02:27:51.839Z,15.60
2018-06-25T02:30:19.911Z,13.35
2018-06-25T02:32:47.919Z,12.68
2018-06-25T02:35:15.953Z,13.80
2018-06-25T02:37:43.987Z,13.08
2018-06-25T02:40:12.042Z,21.85
2018-06-25T02:42:40.073Z,17.87
2018-06-25T02:45:08.418Z,12.30
2018-06-25T02:47:36.493Z,20.92
2018-06-25T02:50:04.748Z,18.12
2018-06-25T02:52:32.777Z,11.00
2018-06-25T02:55:00.792Z,21.17
2018-06-25T02:57:29.499Z,17.27
2018-06-25T02:59:57.541Z,16.93
2018-06-25T03:02:25.585Z,21.65
2018-06-25T03:04:53.645Z,14.50
2018-06-25T03:07:21.720Z,16.10
2018-06-25T03:09:49.730Z,18.20
2018-06-25T03:12:17.741Z,28.83
2018-06-25T03:14:46.221Z,16.07
2018-06-25T03:17:14.233Z,16.70
2018-06-25T03:19:42.310Z,16.13
2018-06-25T03:24:45.317Z,15.75
2018-06-25T03:27:13.409Z,19.13
2018-06-25T03:29:41.434Z,19.53
2018-06-25T03:32:09.482Z,18.33
2018-06-25T03:34:37.764Z,15.15
2018-06-25T03:37:05.847Z,18.70
2018-06-25T03:39:33.873Z,24.53
2018-06-25T03:42:01.895Z,13.97
2018-06-25T03:44:30.012Z,14.13
2018-06-25T03:46:58.029Z,15.33
2018-06-25T03:49:26.110Z,23.10
2018-06-25T03:51:54.178Z,18.67
2018-06-25T03:54:22.217Z,25.00
2018-06-25T03:56:50.252Z,16.50
2018-06-25T03:59:18.305Z,22.73
2018-06-25T04:01:46.333Z,16.77
2018-06-25T04:04:14.389Z,17.00
2018-06-25T04:06:42.411Z,15.90
2018-06-25T04:09:11.460Z,16.93
2018-06-25T04:11:39.941Z,20.90
2018-06-25T04:14:08.344Z,18.03
2018-06-25T04:16:36.341Z,16.20
2018-06-25T04:19:05.130Z,15.40
2018-06-25T04:21:35.045Z,17.07
2018-06-25T04:24:03.061Z,13.17
2018-06-25T04:26:31.697Z,17.83
2018-06-25T04:28:59.745Z,20.23
2018-06-25T04:31:28.291Z,15.90
2018-06-25T04:33:56.377Z,17.60
2018-06-25T04:36:24.434Z,15.43
2018-06-25T04:38:52.468Z,20.73
2018-06-25T04:41:20.789Z,24.37
2018-06-25T04:43:48.805Z,16.57
2018-06-25T04:46:16.898Z,22.63
2018-06-25T04:48:44.950Z,18.00
2018-06-25T04:51:12.982Z,24.73
2018-06-25T04:53:41.721Z,23.23
2018-06-25T04:56:10.444Z,21.67
2018-06-25T04:58:38.467Z,19.87
2018-06-25T05:01:06.599Z,16.53
2018-06-25T05:03:34.971Z,21.43
2018-06-25T05:06:03.062Z,18.47
2018-06-25T05:08:31.099Z,22.10
2018-06-25T05:10:59.450Z,17.23
2018-06-25T05:13:27.518Z,17.53
2018-06-25T05:15:55.713Z,20.37
2018-06-25T05:18:23.769Z,16.10
2018-06-25T05:20:51.784Z,19.10
2018-06-25T05:23:19.864Z,20.27
2018-06-25T05:25:48.329Z,20.43
2018-06-25T05:28:16.345Z,16.63
2018-06-25T05:30:44.537Z,18.93
2018-06-25T05:33:12.937Z,19.33
2018-06-25T05:35:41.074Z,20.30
2018-06-25T05:38:09.146Z,17.27
2018-06-25T05:40:37.325Z,14.90
2018-06-25T05:43:05.357Z,17.80
2018-06-25T05:45:33.455Z,16.70
2018-06-25T05:48:02.091Z,14.00
2018-06-25T05:50:30.462Z,13.87
2018-06-25T05:52:58.541Z,15.53
2018-06-25T05:55:26.676Z,16.40
2018-06-25T05:57:54.691Z,20.00
2018-06-25T06:00:22.745Z,16.00
2018-06-25T06:02:51.229Z,16.93
2018-06-25T06:05:19.265Z,15.67
2018-06-25T06:07:47.482Z,15.87
2018-06-25T06:10:15.849Z,15.43
2018-06-25T06:12:43.873Z,17.43
2018-06-25T06:15:11.990Z,16.53
2018-06-25T06:17:40.133Z,17.67
2018-06-25T06:20:08.195Z,17.80
2018-06-25T06:22:36.238Z,18.50
2018-06-25T06:25:04.269Z,20.10
2018-06-25T06:27:32.288Z,16.13
2018-06-25T06:30:00.337Z,19.00
2018-06-25T06:32:28.425Z,21.43
2018-06-25T06:34:56.494Z,17.83
2018-06-25T06:37:24.577Z,24.67
2018-06-25T06:39:53.568Z,25.03
2018-06-25T06:42:21.597Z,21.97
2018-06-25T06:44:49.636Z,21.73
2018-06-25T06:47:17.695Z,26.23
2018-06-25T06:49:45.807Z,22.10
2018-06-25T06:52:13.828Z,21.10
2018-06-25T06:54:42.266Z,20.70
2018-06-25T06:57:10.301Z,26.13
2018-06-25T06:59:38.434Z,21.50
2018-06-25T07:02:06.881Z,22.67
2018-06-25T07:04:35.144Z,24.90
2018-06-25T07:07:03.159Z,23.10
2018-06-25T07:09:31.509Z,23.80
2018-06-25T07:11:59.530Z,23.63
2018-06-25T07:14:27.601Z,19.53
2018-06-25T07:16:55.644Z,24.83
2018-06-25T07:19:23.730Z,21.77
2018-06-25T07:21:51.810Z,20.23
2018-06-25T07:24:20.262Z,22.10
2018-06-25T07:26:48.305Z,21.00
2018-06-25T07:29:16.469Z,18.47
2018-06-25T07:31:44.541Z,20.00
2018-06-25T07:34:12.610Z,19.40
2018-06-25T07:36:40.738Z,24.43
2018-06-25T07:39:09.121Z,23.40
2018-06-25T07:41:37.251Z,26.20
2018-06-25T07:44:05.305Z,20.83
2018-06-25T07:46:33.667Z,22.47
2018-06-25T07:49:01.777Z,22.40
2018-06-25T07:51:29.834Z,21.17
2018-06-25T07:53:57.933Z,24.80
2018-06-25T07:56:25.993Z,22.53
2018-06-25T07:58:54.069Z,25.67
2018-06-25T08:01:22.175Z,18.97
2018-06-25T08:03:50.198Z,16.83
2018-06-25T08:06:18.256Z,16.23
2018-06-25T08:08:46.304Z,20.50
2018-06-25T08:11:14.368Z,19.40
2018-06-25T08:13:42.380Z,17.90
2018-06-25T08:16:10.800Z,15.80
2018-06-25T08:18:38.898Z,17.50
2018-06-25T08:21:06.876Z,17.07
2018-06-25T08:23:34.916Z,31.70
2018-06-25T08:26:03.392Z,12.83
2018-06-25T08:28:31.502Z,13.80
2018-06-25T08:30:59.550Z,15.73
2018-06-25T08:33:27.610Z,13.93
2018-06-25T08:35:55.660Z,14.63
2018-06-25T08:38:23.723Z,11.50
2018-06-25T08:40:51.781Z,10.83
2018-06-25T08:43:19.960Z,12.90
2018-06-25T08:45:48.354Z,12.43
2018-06-25T08:48:16.380Z,9.47
2018-06-25T08:50:44.499Z,8.90
2018-06-25T08:53:12.954Z,7.50
2018-06-25T08:55:41.068Z,7.47
2018-06-25T08:58:09.201Z,6.53
2018-06-25T09:00:37.228Z,6.87
2018-06-25T09:03:05.757Z,7.47
2018-06-25T09:05:33.789Z,9.30
2018-06-25T09:08:01.817Z,7.00
2018-06-25T09:10:29.824Z,15.30
2018-06-25T09:12:57.832Z,10.27
2018-06-25T09:15:25.981Z,8.07
2018-06-25T09:17:53.961Z,9.60
2018-06-25T09:20:22.045Z,7.73
2018-06-25T09:22:50.145Z,10.97
2018-06-25T09:25:18.189Z,11.00
2018-06-25T09:27:47.104Z,8.80
2018-06-25T09:30:15.393Z,6.33
2018-06-25T09:32:43.532Z,6.27
2018-06-25T09:35:11.640Z,6.77
2018-06-25T09:37:39.686Z,10.60
2018-06-25T09:40:08.321Z,7.20
2018-06-25T09:42:36.609Z,6.27
2018-06-25T09:45:04.817Z,4.23
2018-06-25T09:47:32.861Z,4.43
2018-06-25T09:50:00.894Z,6.13
2018-06-25T09:52:28.986Z,5.00
2018-06-25T09:54:57.119Z,3.90
2018-06-25T09:57:25.170Z,4.63
2018-06-25T09:59:53.289Z,6.70
2018-06-25T10:02:21.342Z,7.33
2018-06-25T10:04:49.358Z,5.43
2018-06-25T10:07:17.408Z,5.40
2018-06-25T10:09:45.487Z,7.73
2018-06-25T10:12:13.640Z,7.03
2018-06-25T10:14:41.822Z,5.20
2018-06-25T10:17:09.837Z,6.20
2018-06-25T10:19:38.014Z,5.10
2018-06-25T10:22:06.116Z,5.43
2018-06-25T10:24:34.218Z,5.17
2018-06-25T10:27:03.141Z,7.30
2018-06-25T10:29:31.204Z,6.90
2018-06-25T10:31:59.278Z,5.00
2018-06-25T10:34:27.337Z,4.53
2018-06-25T10:36:55.495Z,3.60
2018-06-25T10:39:23.513Z,3.90
2018-06-25T10:41:51.553Z,5.27
2018-06-25T10:44:19.588Z,6.27
2018-06-25T10:46:47.642Z,2.70
2018-06-25T10:49:15.643Z,3.13
2018-06-25T10:51:43.746Z,3.20
2018-06-25T10:54:11.774Z,3.30
2018-06-25T10:56:39.799Z,4.30
2018-06-25T10:59:07.905Z,2.70
2018-06-25T11:01:36.102Z,2.80
2018-06-25T11:04:04.101Z,2.80
2018-06-25T11:06:32.155Z,3.60
2018-06-25T11:09:00.207Z,2.80
2018-06-25T11:11:28.216Z,3.30
2018-06-25T11:13:56.299Z,2.97
2018-06-25T11:16:24.301Z,2.57
2018-06-25T11:18:52.325Z,4.67
2018-06-25T11:21:20.702Z,2.97
2018-06-25T11:23:48.778Z,3.20
2018-06-25T11:26:16.833Z,3.60
2018-06-25T11:28:44.913Z,2.50
2018-06-25T11:31:12.962Z,3.23
2018-06-25T11:33:40.982Z,3.70
2018-06-25T11:36:09.321Z,1.93
2018-06-25T11:38:37.469Z,1.73
2018-06-25T11:41:05.514Z,1.90
2018-06-25T11:43:33.577Z,1.80
2018-06-25T11:46:01.681Z,1.80
2018-06-25T11:48:29.743Z,2.27
2018-06-25T11:50:58.154Z,1.80
2018-06-25T11:53:26.169Z,1.90
2018-06-25T11:55:54.196Z,1.60
2018-06-25T11:58:22.256Z,2.30
2018-06-25T12:00:50.307Z,2.40
2018-06-25T12:03:18.723Z,2.10
2018-06-25T12:05:46.425Z,1.77
2018-06-25T12:08:14.493Z,2.17
2018-06-25T12:10:42.597Z,3.17
2018-06-25T12:13:10.871Z,2.17
2018-06-25T12:15:39.014Z,4.10
2018-06-25T12:18:07.027Z,1.87
2018-06-25T12:20:35.061Z,1.80
2018-06-25T12:25:37.710Z,2.17
2018-06-25T12:28:05.789Z,1.97
2018-06-25T12:30:33.875Z,2.10
2018-06-25T12:33:01.944Z,1.97
2018-06-25T12:35:30.012Z,2.47
2018-06-25T12:37:58.056Z,2.47
2018-06-25T12:40:26.073Z,2.70
2018-06-25T12:42:54.134Z,2.03
2018-06-25T12:45:22.143Z,2.13
2018-06-25T12:47:50.445Z,2.87
2018-06-25T12:50:18.559Z,2.33
2018-06-25T12:52:47.213Z,3.20
2018-06-25T12:55:15.293Z,11.10
2018-06-25T12:57:43.508Z,1.83
2018-06-25T13:00:11.520Z,2.67
2018-06-25T13:02:39.552Z,2.93
2018-06-25T13:05:07.690Z,2.27
2018-06-25T13:07:35.695Z,2.43
2018-06-25T13:10:03.745Z,2.33
2018-06-25T13:12:31.744Z,2.90
2018-06-25T13:14:59.826Z,2.50
2018-06-25T13:17:27.906Z,2.83
2018-06-25T13:19:55.949Z,4.40
2018-06-25T13:22:24.010Z,2.57
2018-06-25T13:24:52.093Z,3.00
2018-06-25T13:27:20.173Z,2.60
2018-06-25T13:29:48.198Z,3.03
2018-06-25T13:32:16.222Z,2.60
2018-06-25T13:34:44.424Z,2.57
2018-06-25T13:37:12.535Z,2.23
2018-06-25T13:39:40.697Z,5.13
2018-06-25T13:42:08.708Z,3.00
2018-06-25T13:44:37.061Z,2.97
2018-06-25T13:47:05.081Z,2.70
2018-06-25T13:49:33.154Z,3.67
2018-06-25T13:52:01.202Z,3.93
2018-06-25T13:54:29.347Z,2.90
2018-06-25T13:56:57.455Z,5.03
2018-06-25T13:59:25.465Z,7.83
2018-06-25T14:01:53.624Z,2.90
2018-06-25T14:04:21.646Z,2.50
2018-06-25T14:06:49.772Z,4.23
2018-06-25T14:09:18.232Z,2.70
2018-06-25T14:11:46.298Z,2.03
2018-06-25T14:14:14.411Z,3.07
2018-06-25T14:16:42.969Z,3.03
2018-06-25T14:19:10.892Z,4.37
2018-06-25T14:21:38.912Z,6.50
2018-06-25T14:24:12.445Z,3.37
2018-06-25T14:26:42.970Z,2.73
2018-06-25T14:29:16.595Z,4.30
2018-06-25T14:31:44.590Z,3.73
2018-06-25T14:34:18.142Z,4.30
2018-06-25T14:36:46.199Z,3.33
2018-06-25T14:39:14.315Z,3.40
2018-06-25T14:41:42.610Z,7.13
2018-06-25T14:44:10.752Z,3.27
2018-06-25T14:46:38.801Z,3.10
2018-06-25T14:49:06.893Z,2.93
2018-06-25T14:51:34.976Z,2.40
2018-06-25T14:54:03.527Z,4.17
2018-06-25T14:56:31.550Z,5.10
2018-06-25T14:58:59.640Z,4.40
2018-06-25T15:01:27.729Z,3.20
2018-06-25T15:03:55.846Z,3.63
2018-06-25T15:06:23.871Z,3.73
2018-06-25T15:08:51.877Z,3.73
2018-06-25T15:11:20.257Z,3.83
2018-06-25T15:13:48.285Z,4.70
2018-06-25T15:16:16.312Z,4.20
2018-06-25T15:18:44.345Z,4.10
2018-06-25T15:21:12.417Z,4.53
2018-06-25T15:23:40.434Z,4.37
2018-06-25T15:26:08.850Z,4.23
2018-06-25T15:28:36.993Z,4.50
2018-06-25T15:31:05.051Z,4.73
2018-06-25T15:33:33.203Z,4.63
2018-06-25T15:36:01.253Z,4.47
2018-06-25T15:38:29.317Z,4.87
2018-06-25T15:40:57.380Z,4.13
2018-06-25T15:43:25.410Z,4.20
2018-06-25T15:45:53.452Z,3.60
2018-06-25T15:48:21.479Z,6.60
2018-06-25T15:50:49.493Z,3.60
2018-06-25T15:53:17.625Z,3.70
2018-06-25T15:55:45.649Z,3.80
2018-06-25T15:58:13.803Z,3.40
2018-06-25T16:00:41.917Z,4.93
2018-06-25T16:03:09.977Z,4.40
2018-06-25T16:05:38.085Z,4.80
2018-06-25T16:08:06.114Z,6.13
2018-06-25T16:10:34.166Z,4.80
2018-06-25T16:13:02.242Z,4.90
2018-06-25T16:15:30.310Z,3.70
2018-06-25T16:17:58.407Z,3.80
2018-06-25T16:20:26.477Z,3.70
2018-06-25T16:22:54.859Z,4.00
2018-06-25T16:25:22.949Z,4.03
2018-06-25T16:27:51.050Z,4.47
2018-06-25T16:30:19.103Z,3.90
2018-06-25T16:32:47.166Z,3.77
2018-06-25T16:35:15.447Z,3.17
2018-06-25T16:37:43.941Z,4.73
2018-06-25T16:40:12.035Z,3.07
2018-06-25T16:42:40.291Z,3.67
2018-06-25T16:45:08.410Z,5.73
2018-06-25T16:47:36.594Z,4.20
2018-06-25T16:50:04.646Z,3.53
2018-06-25T16:52:32.737Z,5.20
2018-06-25T16:55:01.097Z,3.63
2018-06-25T16:57:29.132Z,3.73
2018-06-25T16:59:57.142Z,4.87
2018-06-25T17:02:25.547Z,4.60
2018-06-25T17:04:53.597Z,4.43
2018-06-25T17:07:21.648Z,3.40
2018-06-25T17:09:49.733Z,3.13
2018-06-25T17:12:17.768Z,3.50
2018-06-25T17:14:45.880Z,4.13
2018-06-25T17:17:13.923Z,3.50
2018-06-25T17:19:41.939Z,2.83
2018-06-25T17:22:09.985Z,3.30
2018-06-25T17:24:38.028Z,3.50
2018-06-25T17:27:06.100Z,4.30
2018-06-25T17:29:34.204Z,3.67
2018-06-25T17:32:02.322Z,3.10
2018-06-25T17:34:30.471Z,5.47
2018-06-25T17:36:58.513Z,2.90
2018-06-25T17:39:26.541Z,3.20
2018-06-25T17:41:54.601Z,3.67
2018-06-25T17:44:22.705Z,3.80
2018-06-25T17:46:50.801Z,3.30
2018-06-25T17:49:18.960Z,3.23
2018-06-25T17:51:47.037Z,4.30
2018-06-25T17:54:15.094Z,4.43
2018-06-25T17:56:43.162Z,3.43
2018-06-25T17:59:11.187Z,4.47
2018-06-25T18:01:39.299Z,3.80
2018-06-25T18:04:07.322Z,3.87
2018-06-25T18:06:35.421Z,5.53
2018-06-25T18:09:05.318Z,4.10
2018-06-25T18:11:33.371Z,4.53
2018-06-25T18:14:01.479Z,5.40
2018-06-25T18:16:29.579Z,5.17
2018-06-25T18:18:57.663Z,3.60
2018-06-25T18:21:25.685Z,3.93
2018-06-25T18:23:53.889Z,5.30
2018-06-25T18:26:22.068Z,3.77
2018-06-25T18:28:50.127Z,3.63
2018-06-25T18:31:18.185Z,5.03
2018-06-25T18:33:46.274Z,3.80
2018-06-25T18:36:14.246Z,3.97
2018-06-25T18:38:42.304Z,4.60
2018-06-25T18:41:10.389Z,3.93
2018-06-25T18:43:38.451Z,4.90
2018-06-25T18:46:06.494Z,4.77
2018-06-25T18:48:34.534Z,4.93
2018-06-25T18:51:02.554Z,4.60
2018-06-25T18:53:30.577Z,4.80
2018-06-25T18:55:58.613Z,4.60
2018-06-25T18:58:26.657Z,6.00
2018-06-25T19:00:55.070Z,6.30
2018-06-25T19:03:23.169Z,5.60
2018-06-25T19:05:51.177Z,6.47
2018-06-25T19:08:19.212Z,5.90
2018-06-25T19:10:47.260Z,4.80
2018-06-25T19:13:15.299Z,6.70
2018-06-25T19:15:43.346Z,6.70
2018-06-25T19:18:11.377Z,6.30
2018-06-25T19:20:39.483Z,9.17
2018-06-25T19:23:07.518Z,7.17
2018-06-25T19:25:35.639Z,11.40
2018-06-25T19:28:03.681Z,10.47
2018-06-25T19:30:31.765Z,7.53
2018-06-25T19:32:59.946Z,5.90
2018-06-25T19:35:27.990Z,7.77
2018-06-25T19:37:56.132Z,7.17
2018-06-25T19:40:25.100Z,6.77
2018-06-25T19:42:53.105Z,7.40
2018-06-25T19:45:21.161Z,7.47
2018-06-25T19:47:49.223Z,5.97
2018-06-25T19:50:17.320Z,6.43
2018-06-25T19:52:45.408Z,6.83
2018-06-25T19:55:13.419Z,6.83
2018-06-25T19:57:41.451Z,7.53
2018-06-25T20:00:09.506Z,6.60
2018-06-25T20:02:37.574Z,6.53
2018-06-25T20:05:05.638Z,6.77
2018-06-25T20:07:34.017Z,9.03
2018-06-25T20:10:02.031Z,7.83
2018-06-25T20:12:30.226Z,6.30
2018-06-25T20:14:58.245Z,7.23
2018-06-25T20:17:26.253Z,6.67
2018-06-25T20:19:54.339Z,7.53
2018-06-25T20:22:22.402Z,7.83
2018-06-25T20:24:50.436Z,7.60
2018-06-25T20:27:18.503Z,8.60
2018-06-25T20:29:46.639Z,9.80
2018-06-25T20:32:14.691Z,9.63
2018-06-25T20:34:42.801Z,7.43
2018-06-25T20:37:10.868Z,6.70
2018-06-25T20:39:39.009Z,8.33
2018-06-25T20:42:07.061Z,8.87
2018-06-25T20:44:35.486Z,11.70
2018-06-25T20:47:03.590Z,8.00
2018-06-25T20:49:31.520Z,14.33
2018-06-25T20:51:59.549Z,8.93
2018-06-25T20:54:27.565Z,7.70
2018-06-25T20:56:55.666Z,8.83
2018-06-25T20:59:23.675Z,8.23
2018-06-25T21:01:52.118Z,8.37
2018-06-25T21:04:20.164Z,11.17
2018-06-25T21:06:48.629Z,8.90
2018-06-25T21:09:16.625Z,10.00
2018-06-25T21:11:44.681Z,9.70
2018-06-25T21:14:13.042Z,9.80
2018-06-25T21:16:41.111Z,11.03
2018-06-25T21:19:09.165Z,10.20
2018-06-25T21:21:37.236Z,12.27
2018-06-25T21:24:05.301Z,13.40
2018-06-25T21:26:33.341Z,10.80
2018-06-25T21:29:01.709Z,10.00
2018-06-25T21:31:29.759Z,9.77
2018-06-25T21:33:57.766Z,12.43
2018-06-25T21:36:25.834Z,11.67
2018-06-25T21:38:53.893Z,15.28
2018-06-25T21:41:22.291Z,10.40
2018-06-25T21:43:50.353Z,9.80
2018-06-25T21:46:18.387Z,13.58
2018-06-25T21:48:46.409Z,13.08
2018-06-25T21:51:14.485Z,12.28
2018-06-25T21:53:42.539Z,12.10
2018-06-25T21:56:10.569Z,11.83
2018-06-25T21:58:39.045Z,10.48
2018-06-25T22:01:07.081Z,10.30
2018-06-25T22:03:35.141Z,11.10
2018-06-25T22:06:03.192Z,11.30
2018-06-25T22:08:31.248Z,10.73
2018-06-25T22:10:59.265Z,14.67
2018-06-25T22:13:27.391Z,11.78
2018-06-25T22:15:55.445Z,11.60
2018-06-25T22:18:23.461Z,10.00
2018-06-25T22:20:51.895Z,12.78
2018-06-25T22:23:20.013Z,10.97
2018-06-25T22:25:48.118Z,9.95
2018-06-25T22:28:16.966Z,10.13
2018-06-25T22:30:44.994Z,14.13
2018-06-25T22:33:13.006Z,11.00
2018-06-25T22:35:41.437Z,11.15
2018-06-25T22:38:09.469Z,9.55
2018-06-25T22:40:37.619Z,10.68
2018-06-25T22:43:06.033Z,11.65
2018-06-25T22:45:34.074Z,10.93
2018-06-25T22:48:02.157Z,10.70
2018-06-25T22:50:30.193Z,17.10
2018-06-25T22:52:58.209Z,10.50
2018-06-25T22:55:34.266Z,15.63
2018-06-25T22:58:02.358Z,12.28
2018-06-25T23:00:30.902Z,13.65
2018-06-25T23:02:58.975Z,13.00
2018-06-25T23:05:27.072Z,10.23
2018-06-25T23:07:55.080Z,12.47
2018-06-25T23:10:23.241Z,12.55
2018-06-25T23:12:51.284Z,10.70
2018-06-25T23:15:20.013Z,11.70
2018-06-25T23:17:48.085Z,11.12
2018-06-25T23:20:16.133Z,11.15
2018-06-25T23:22:44.209Z,13.00
2018-06-25T23:25:12.227Z,11.25
2018-06-25T23:27:40.349Z,11.10
2018-06-25T23:30:08.358Z,12.90
2018-06-25T23:32:36.407Z,13.22
2018-06-25T23:35:04.478Z,12.73
2018-06-25T23:37:32.585Z,11.75
2018-06-25T23:40:01.018Z,10.95
2018-06-25T23:42:29.034Z,12.93
2018-06-25T23:44:57.108Z,16.95
2018-06-25T23:47:25.145Z,12.58
2018-06-25T23:49:53.152Z,15.93
2018-06-25T23:52:21.219Z,11.93
2018-06-25T23:54:49.698Z,12.70
2018-06-25T23:57:17.744Z,9.95
2018-06-25T23:59:45.765Z,13.05
